sensor_id;sensor_type;location;lat;lon;timestamp;P1;durP1;ratioP1;P2;durP2;ratioP2
31694;SDS011;18289;51.330;4.946;2023-03-01T00:01:11;8.90;;;7.25;;
31694;SDS011;18289;51.330;4.946;2023-03-01T00:03:38;9.65;;;7.10;;
31694;SDS011;18289;51.330;4.946;2023-03-01T00:06:04;11.75;;;7.38;;
31694;SDS011;18289;51.330;4.946;2023-03-01T00:08:31;9.27;;;7.00;;
31694;SDS011;18289;51.330;4.946;2023-03-01T00:13:43;6.60;;;5.80;;
31694;SDS011;18289;51.330;4.946;2023-03-01T00:16:11;11.82;;;6.72;;
31694;SDS011;18289;51.330;4.946;2023-03-01T00:18:39;8.07;;;6.93;;
31694;SDS011;18289;51.330;4.946;2023-03-01T00:21:05;8.88;;;7.05;;
31694;SDS011;18289;51.330;4.946;2023-03-01T00:23:31;10.70;;;7.15;;
31694;SDS011;18289;51.330;4.946;2023-03-01T00:25:59;7.63;;;6.72;;
31694;SDS011;18289;51.330;4.946;2023-03-01T00:28:25;10.57;;;7.47;;
31694;SDS011;18289;51.330;4.946;2023-03-01T00:30:50;9.52;;;7.32;;
31694;SDS011;18289;51.330;4.946;2023-03-01T00:33:16;10.57;;;7.70;;
31694;SDS011;18289;51.330;4.946;2023-03-01T00:35:42;8.77;;;7.05;;
31694;SDS011;18289;51.330;4.946;2023-03-01T00:38:08;8.52;;;6.70;;
31694;SDS011;18289;51.330;4.946;2023-03-01T00:40:34;12.43;;;8.00;;
31694;SDS011;18289;51.330;4.946;2023-03-01T00:43:01;10.48;;;7.60;;
31694;SDS011;18289;51.330;4.946;2023-03-01T00:45:27;9.35;;;7.25;;
31694;SDS011;18289;51.330;4.946;2023-03-01T00:47:53;8.60;;;7.18;;
31694;SDS011;18289;51.330;4.946;2023-03-01T00:50:20;9.55;;;7.28;;
31694;SDS011;18289;51.330;4.946;2023-03-01T00:52:46;7.65;;;6.85;;
31694;SDS011;18289;51.330;4.946;2023-03-01T00:55:12;9.95;;;7.38;;
31694;SDS011;18289;51.330;4.946;2023-03-01T00:57:37;10.27;;;6.97;;
31694;SDS011;18289;51.330;4.946;2023-03-01T01:00:04;8.73;;;7.35;;
31694;SDS011;18289;51.330;4.946;2023-03-01T01:02:34;9.52;;;7.47;;
31694;SDS011;18289;51.330;4.946;2023-03-01T01:05:00;13.90;;;7.40;;
31694;SDS011;18289;51.330;4.946;2023-03-01T01:07:25;9.65;;;6.75;;
31694;SDS011;18289;51.330;4.946;2023-03-01T01:09:51;11.43;;;7.88;;
31694;SDS011;18289;51.330;4.946;2023-03-01T01:12:17;10.20;;;7.22;;
31694;SDS011;18289;51.330;4.946;2023-03-01T01:14:42;10.70;;;7.40;;
31694;SDS011;18289;51.330;4.946;2023-03-01T01:17:08;8.73;;;7.30;;
31694;SDS011;18289;51.330;4.946;2023-03-01T01:19:34;9.00;;;7.50;;
31694;SDS011;18289;51.330;4.946;2023-03-01T01:22:00;9.25;;;7.25;;
31694;SDS011;18289;51.330;4.946;2023-03-01T01:24:26;8.85;;;7.18;;
31694;SDS011;18289;51.330;4.946;2023-03-01T01:26:51;11.13;;;7.05;;
31694;SDS011;18289;51.330;4.946;2023-03-01T01:29:17;11.75;;;7.18;;
31694;SDS011;18289;51.330;4.946;2023-03-01T01:31:43;10.00;;;7.57;;
31694;SDS011;18289;51.330;4.946;2023-03-01T01:34:12;9.68;;;7.40;;
31694;SDS011;18289;51.330;4.946;2023-03-01T01:36:40;11.43;;;7.75;;
31694;SDS011;18289;51.330;4.946;2023-03-01T01:39:06;9.15;;;7.53;;
31694;SDS011;18289;51.330;4.946;2023-03-01T01:41:32;11.57;;;7.80;;
31694;SDS011;18289;51.330;4.946;2023-03-01T01:49:55;10.07;;;7.95;;
31694;SDS011;18289;51.330;4.946;2023-03-01T01:52:23;9.45;;;7.10;;
31694;SDS011;18289;51.330;4.946;2023-03-01T02:00:14;10.10;;;7.43;;
31694;SDS011;18289;51.330;4.946;2023-03-01T02:02:44;10.55;;;7.72;;
31694;SDS011;18289;51.330;4.946;2023-03-01T02:05:20;11.70;;;7.28;;
31694;SDS011;18289;51.330;4.946;2023-03-01T02:07:47;12.00;;;7.25;;
31694;SDS011;18289;51.330;4.946;2023-03-01T02:10:14;9.85;;;7.55;;
31694;SDS011;18289;51.330;4.946;2023-03-01T02:12:40;10.38;;;7.70;;
31694;SDS011;18289;51.330;4.946;2023-03-01T02:15:06;13.35;;;8.60;;
31694;SDS011;18289;51.330;4.946;2023-03-01T02:17:32;9.90;;;7.47;;
31694;SDS011;18289;51.330;4.946;2023-03-01T02:22:32;10.25;;;7.90;;
31694;SDS011;18289;51.330;4.946;2023-03-01T02:27:31;11.87;;;7.73;;
31694;SDS011;18289;51.330;4.946;2023-03-01T02:30:05;12.32;;;8.20;;
31694;SDS011;18289;51.330;4.946;2023-03-01T02:32:32;11.90;;;7.65;;
31694;SDS011;18289;51.330;4.946;2023-03-01T02:35:00;11.57;;;8.38;;
31694;SDS011;18289;51.330;4.946;2023-03-01T02:37:26;10.50;;;7.55;;
31694;SDS011;18289;51.330;4.946;2023-03-01T02:39:54;13.23;;;7.90;;
31694;SDS011;18289;51.330;4.946;2023-03-01T02:42:26;13.48;;;8.95;;
31694;SDS011;18289;51.330;4.946;2023-03-01T02:44:55;12.93;;;8.55;;
31694;SDS011;18289;51.330;4.946;2023-03-01T02:47:21;12.05;;;8.55;;
31694;SDS011;18289;51.330;4.946;2023-03-01T02:49:47;11.57;;;7.90;;
31694;SDS011;18289;51.330;4.946;2023-03-01T02:55:13;10.60;;;7.50;;
31694;SDS011;18289;51.330;4.946;2023-03-01T02:57:42;11.25;;;8.20;;
31694;SDS011;18289;51.330;4.946;2023-03-01T03:00:10;10.05;;;7.65;;
31694;SDS011;18289;51.330;4.946;2023-03-01T03:02:48;11.02;;;7.70;;
31694;SDS011;18289;51.330;4.946;2023-03-01T03:05:16;10.40;;;7.10;;
31694;SDS011;18289;51.330;4.946;2023-03-01T03:07:48;9.18;;;7.13;;
31694;SDS011;18289;51.330;4.946;2023-03-01T03:10:17;9.90;;;7.95;;
31694;SDS011;18289;51.330;4.946;2023-03-01T03:12:48;7.70;;;6.53;;
31694;SDS011;18289;51.330;4.946;2023-03-01T03:15:21;9.02;;;6.97;;
31694;SDS011;18289;51.330;4.946;2023-03-01T03:17:48;10.13;;;7.13;;
31694;SDS011;18289;51.330;4.946;2023-03-01T03:20:16;9.98;;;7.22;;
31694;SDS011;18289;51.330;4.946;2023-03-01T03:22:46;11.10;;;7.10;;
31694;SDS011;18289;51.330;4.946;2023-03-01T03:27:41;9.85;;;7.32;;
31694;SDS011;18289;51.330;4.946;2023-03-01T03:30:10;10.52;;;6.97;;
31694;SDS011;18289;51.330;4.946;2023-03-01T03:32:42;9.02;;;6.25;;
31694;SDS011;18289;51.330;4.946;2023-03-01T03:37:55;8.85;;;6.85;;
31694;SDS011;18289;51.330;4.946;2023-03-01T03:40:32;9.20;;;6.65;;
31694;SDS011;18289;51.330;4.946;2023-03-01T03:42:57;9.15;;;6.78;;
31694;SDS011;18289;51.330;4.946;2023-03-01T03:45:23;11.27;;;8.27;;
31694;SDS011;18289;51.330;4.946;2023-03-01T03:47:49;9.60;;;7.28;;
31694;SDS011;18289;51.330;4.946;2023-03-01T03:50:16;8.55;;;6.65;;
31694;SDS011;18289;51.330;4.946;2023-03-01T03:52:42;8.00;;;6.82;;
31694;SDS011;18289;51.330;4.946;2023-03-01T03:55:09;9.45;;;7.18;;
31694;SDS011;18289;51.330;4.946;2023-03-01T03:57:37;9.75;;;7.28;;
31694;SDS011;18289;51.330;4.946;2023-03-01T04:00:04;8.55;;;6.70;;
31694;SDS011;18289;51.330;4.946;2023-03-01T04:02:38;8.18;;;6.80;;
31694;SDS011;18289;51.330;4.946;2023-03-01T04:05:07;9.60;;;6.82;;
31694;SDS011;18289;51.330;4.946;2023-03-01T04:07:35;10.60;;;7.15;;
31694;SDS011;18289;51.330;4.946;2023-03-01T04:10:02;8.95;;;7.13;;
31694;SDS011;18289;51.330;4.946;2023-03-01T04:12:34;9.00;;;6.68;;
31694;SDS011;18289;51.330;4.946;2023-03-01T04:15:03;9.85;;;7.50;;
31694;SDS011;18289;51.330;4.946;2023-03-01T04:17:41;8.35;;;6.90;;
31694;SDS011;18289;51.330;4.946;2023-03-01T04:20:12;8.90;;;7.07;;
31694;SDS011;18289;51.330;4.946;2023-03-01T04:22:42;8.90;;;6.50;;
31694;SDS011;18289;51.330;4.946;2023-03-01T04:25:11;7.88;;;6.75;;
31694;SDS011;18289;51.330;4.946;2023-03-01T04:27:39;12.43;;;6.97;;
31694;SDS011;18289;51.330;4.946;2023-03-01T04:30:06;8.93;;;6.55;;
31694;SDS011;18289;51.330;4.946;2023-03-01T04:32:36;8.38;;;6.22;;
31694;SDS011;18289;51.330;4.946;2023-03-01T04:35:02;10.43;;;7.45;;
31694;SDS011;18289;51.330;4.946;2023-03-01T04:37:28;9.77;;;7.45;;
31694;SDS011;18289;51.330;4.946;2023-03-01T04:39:54;11.35;;;7.45;;
31694;SDS011;18289;51.330;4.946;2023-03-01T04:42:20;10.50;;;7.30;;
31694;SDS011;18289;51.330;4.946;2023-03-01T04:44:46;11.25;;;7.57;;
31694;SDS011;18289;51.330;4.946;2023-03-01T04:47:11;10.52;;;7.35;;
31694;SDS011;18289;51.330;4.946;2023-03-01T04:49:38;10.65;;;7.03;;
31694;SDS011;18289;51.330;4.946;2023-03-01T04:52:04;9.18;;;7.40;;
31694;SDS011;18289;51.330;4.946;2023-03-01T04:54:31;9.13;;;7.07;;
31694;SDS011;18289;51.330;4.946;2023-03-01T04:56:58;13.10;;;7.05;;
31694;SDS011;18289;51.330;4.946;2023-03-01T04:59:24;11.50;;;7.60;;
31694;SDS011;18289;51.330;4.946;2023-03-01T05:01:51;11.23;;;7.85;;
31694;SDS011;18289;51.330;4.946;2023-03-01T05:04:21;10.27;;;7.80;;
31694;SDS011;18289;51.330;4.946;2023-03-01T05:06:47;9.98;;;7.45;;
31694;SDS011;18289;51.330;4.946;2023-03-01T05:09:13;8.57;;;6.82;;
31694;SDS011;18289;51.330;4.946;2023-03-01T05:11:39;10.38;;;6.38;;
31694;SDS011;18289;51.330;4.946;2023-03-01T05:14:05;8.68;;;6.85;;
31694;SDS011;18289;51.330;4.946;2023-03-01T05:16:32;9.77;;;6.85;;
31694;SDS011;18289;51.330;4.946;2023-03-01T05:18:58;9.75;;;7.28;;
31694;SDS011;18289;51.330;4.946;2023-03-01T05:21:24;10.93;;;7.68;;
31694;SDS011;18289;51.330;4.946;2023-03-01T05:23:50;10.85;;;7.60;;
31694;SDS011;18289;51.330;4.946;2023-03-01T05:26:17;10.25;;;7.25;;
31694;SDS011;18289;51.330;4.946;2023-03-01T05:28:44;10.07;;;7.38;;
31694;SDS011;18289;51.330;4.946;2023-03-01T05:31:10;12.50;;;7.35;;
31694;SDS011;18289;51.330;4.946;2023-03-01T05:33:36;11.52;;;7.65;;
31694;SDS011;18289;51.330;4.946;2023-03-01T05:36:04;13.90;;;7.57;;
31694;SDS011;18289;51.330;4.946;2023-03-01T05:38:31;12.50;;;7.95;;
31694;SDS011;18289;51.330;4.946;2023-03-01T05:40:56;11.20;;;7.90;;
31694;SDS011;18289;51.330;4.946;2023-03-01T05:43:22;10.07;;;7.75;;
31694;SDS011;18289;51.330;4.946;2023-03-01T05:45:48;11.85;;;8.32;;
31694;SDS011;18289;51.330;4.946;2023-03-01T05:48:14;17.05;;;8.25;;
31694;SDS011;18289;51.330;4.946;2023-03-01T05:50:40;11.13;;;8.02;;
31694;SDS011;18289;51.330;4.946;2023-03-01T05:53:12;13.57;;;7.75;;
31694;SDS011;18289;51.330;4.946;2023-03-01T05:55:39;13.65;;;8.50;;
31694;SDS011;18289;51.330;4.946;2023-03-01T05:58:11;13.60;;;7.60;;
31694;SDS011;18289;51.330;4.946;2023-03-01T06:00:41;11.10;;;7.65;;
31694;SDS011;18289;51.330;4.946;2023-03-01T06:03:09;10.65;;;7.63;;
31694;SDS011;18289;51.330;4.946;2023-03-01T06:05:36;13.25;;;7.93;;
31694;SDS011;18289;51.330;4.946;2023-03-01T06:08:02;14.38;;;8.60;;
31694;SDS011;18289;51.330;4.946;2023-03-01T06:10:28;11.80;;;7.85;;
31694;SDS011;18289;51.330;4.946;2023-03-01T06:12:54;12.65;;;8.13;;
31694;SDS011;18289;51.330;4.946;2023-03-01T06:15:21;11.82;;;7.60;;
31694;SDS011;18289;51.330;4.946;2023-03-01T06:17:47;10.45;;;8.02;;
31694;SDS011;18289;51.330;4.946;2023-03-01T06:20:15;10.52;;;8.00;;
31694;SDS011;18289;51.330;4.946;2023-03-01T06:22:42;13.65;;;8.20;;
31694;SDS011;18289;51.330;4.946;2023-03-01T06:25:09;13.07;;;8.27;;
31694;SDS011;18289;51.330;4.946;2023-03-01T06:27:35;11.30;;;7.65;;
31694;SDS011;18289;51.330;4.946;2023-03-01T06:30:01;11.93;;;9.05;;
31694;SDS011;18289;51.330;4.946;2023-03-01T06:32:28;13.65;;;8.45;;
31694;SDS011;18289;51.330;4.946;2023-03-01T06:34:53;10.13;;;7.32;;
31694;SDS011;18289;51.330;4.946;2023-03-01T06:37:19;10.52;;;7.97;;
31694;SDS011;18289;51.330;4.946;2023-03-01T06:39:45;13.88;;;8.45;;
31694;SDS011;18289;51.330;4.946;2023-03-01T06:42:10;10.25;;;7.47;;
31694;SDS011;18289;51.330;4.946;2023-03-01T06:44:36;15.48;;;8.93;;
31694;SDS011;18289;51.330;4.946;2023-03-01T06:47:02;16.75;;;9.57;;
31694;SDS011;18289;51.330;4.946;2023-03-01T06:49:28;15.55;;;8.85;;
31694;SDS011;18289;51.330;4.946;2023-03-01T06:51:55;12.82;;;8.35;;
31694;SDS011;18289;51.330;4.946;2023-03-01T06:54:21;15.65;;;8.77;;
31694;SDS011;18289;51.330;4.946;2023-03-01T06:56:47;12.60;;;8.68;;
31694;SDS011;18289;51.330;4.946;2023-03-01T06:59:14;13.00;;;8.68;;
31694;SDS011;18289;51.330;4.946;2023-03-01T07:01:40;16.00;;;9.00;;
31694;SDS011;18289;51.330;4.946;2023-03-01T07:04:06;14.73;;;8.65;;
31694;SDS011;18289;51.330;4.946;2023-03-01T07:06:31;19.35;;;8.27;;
31694;SDS011;18289;51.330;4.946;2023-03-01T07:08:57;12.32;;;8.40;;
31694;SDS011;18289;51.330;4.946;2023-03-01T07:11:23;12.73;;;7.93;;
31694;SDS011;18289;51.330;4.946;2023-03-01T07:13:49;14.48;;;8.13;;
31694;SDS011;18289;51.330;4.946;2023-03-01T07:16:15;14.05;;;7.63;;
31694;SDS011;18289;51.330;4.946;2023-03-01T07:18:40;11.65;;;8.27;;
31694;SDS011;18289;51.330;4.946;2023-03-01T07:21:07;10.55;;;7.57;;
31694;SDS011;18289;51.330;4.946;2023-03-01T07:23:33;11.48;;;8.32;;
31694;SDS011;18289;51.330;4.946;2023-03-01T07:25:59;14.13;;;8.25;;
31694;SDS011;18289;51.330;4.946;2023-03-01T07:28:25;12.32;;;8.32;;
31694;SDS011;18289;51.330;4.946;2023-03-01T07:30:52;12.23;;;8.38;;
31694;SDS011;18289;51.330;4.946;2023-03-01T07:33:18;14.20;;;8.35;;
31694;SDS011;18289;51.330;4.946;2023-03-01T07:35:44;11.05;;;8.48;;
31694;SDS011;18289;51.330;4.946;2023-03-01T07:38:09;14.20;;;8.93;;
31694;SDS011;18289;51.330;4.946;2023-03-01T07:40:35;11.30;;;8.45;;
31694;SDS011;18289;51.330;4.946;2023-03-01T07:43:01;11.15;;;8.75;;
31694;SDS011;18289;51.330;4.946;2023-03-01T07:45:27;9.55;;;7.53;;
31694;SDS011;18289;51.330;4.946;2023-03-01T07:47:53;9.07;;;7.20;;
31694;SDS011;18289;51.330;4.946;2023-03-01T07:50:20;9.93;;;7.07;;
31694;SDS011;18289;51.330;4.946;2023-03-01T07:52:47;11.18;;;7.22;;
31694;SDS011;18289;51.330;4.946;2023-03-01T07:55:14;12.15;;;7.63;;
31694;SDS011;18289;51.330;4.946;2023-03-01T07:57:40;9.75;;;7.20;;
31694;SDS011;18289;51.330;4.946;2023-03-01T08:00:07;9.45;;;7.22;;
31694;SDS011;18289;51.330;4.946;2023-03-01T08:02:35;8.73;;;6.38;;
31694;SDS011;18289;51.330;4.946;2023-03-01T08:05:01;11.85;;;7.18;;
31694;SDS011;18289;51.330;4.946;2023-03-01T08:07:27;8.82;;;6.78;;
31694;SDS011;18289;51.330;4.946;2023-03-01T08:09:52;9.55;;;7.03;;
31694;SDS011;18289;51.330;4.946;2023-03-01T08:12:18;7.63;;;6.85;;
31694;SDS011;18289;51.330;4.946;2023-03-01T08:14:44;8.45;;;6.13;;
31694;SDS011;18289;51.330;4.946;2023-03-01T08:17:09;9.25;;;6.47;;
31694;SDS011;18289;51.330;4.946;2023-03-01T08:19:35;9.88;;;6.30;;
31694;SDS011;18289;51.330;4.946;2023-03-01T08:22:01;10.13;;;7.05;;
31694;SDS011;18289;51.330;4.946;2023-03-01T08:24:27;9.75;;;6.75;;
31694;SDS011;18289;51.330;4.946;2023-03-01T08:26:54;8.27;;;6.78;;
31694;SDS011;18289;51.330;4.946;2023-03-01T08:29:20;12.95;;;6.65;;
31694;SDS011;18289;51.330;4.946;2023-03-01T08:31:46;8.55;;;6.78;;
31694;SDS011;18289;51.330;4.946;2023-03-01T08:34:14;9.30;;;6.70;;
31694;SDS011;18289;51.330;4.946;2023-03-01T08:36:42;8.98;;;6.63;;
31694;SDS011;18289;51.330;4.946;2023-03-01T08:39:10;7.80;;;6.22;;
31694;SDS011;18289;51.330;4.946;2023-03-01T08:41:37;11.45;;;6.30;;
31694;SDS011;18289;51.330;4.946;2023-03-01T08:44:04;7.95;;;6.38;;
31694;SDS011;18289;51.330;4.946;2023-03-01T08:46:31;8.32;;;6.63;;
31694;SDS011;18289;51.330;4.946;2023-03-01T08:48:59;11.60;;;6.68;;
31694;SDS011;18289;51.330;4.946;2023-03-01T08:51:25;8.40;;;6.50;;
31694;SDS011;18289;51.330;4.946;2023-03-01T08:53:51;7.57;;;6.72;;
31694;SDS011;18289;51.330;4.946;2023-03-01T08:56:18;7.22;;;6.28;;
31694;SDS011;18289;51.330;4.946;2023-03-01T08:58:45;14.40;;;6.30;;
31694;SDS011;18289;51.330;4.946;2023-03-01T09:01:13;8.00;;;5.85;;
31694;SDS011;18289;51.330;4.946;2023-03-01T09:03:41;7.07;;;6.10;;
31694;SDS011;18289;51.330;4.946;2023-03-01T09:06:08;9.25;;;6.20;;
31694;SDS011;18289;51.330;4.946;2023-03-01T09:08:38;6.65;;;5.85;;
31694;SDS011;18289;51.330;4.946;2023-03-01T09:11:06;6.63;;;5.88;;
31694;SDS011;18289;51.330;4.946;2023-03-01T09:13:32;6.28;;;5.60;;
31694;SDS011;18289;51.330;4.946;2023-03-01T09:15:59;7.38;;;6.57;;
31694;SDS011;18289;51.330;4.946;2023-03-01T09:18:26;6.28;;;5.63;;
31694;SDS011;18289;51.330;4.946;2023-03-01T09:20:52;6.95;;;6.25;;
31694;SDS011;18289;51.330;4.946;2023-03-01T09:23:20;6.93;;;6.07;;
31694;SDS011;18289;51.330;4.946;2023-03-01T09:25:46;6.97;;;6.20;;
31694;SDS011;18289;51.330;4.946;2023-03-01T09:28:12;7.95;;;5.88;;
31694;SDS011;18289;51.330;4.946;2023-03-01T09:30:37;8.32;;;6.00;;
31694;SDS011;18289;51.330;4.946;2023-03-01T09:33:03;6.50;;;5.88;;
31694;SDS011;18289;51.330;4.946;2023-03-01T09:35:29;6.10;;;5.50;;
31694;SDS011;18289;51.330;4.946;2023-03-01T09:37:55;7.97;;;6.22;;
31694;SDS011;18289;51.330;4.946;2023-03-01T09:40:21;7.18;;;6.45;;
31694;SDS011;18289;51.330;4.946;2023-03-01T09:43:07;7.22;;;6.30;;
31694;SDS011;18289;51.330;4.946;2023-03-01T09:45:41;8.13;;;6.07;;
31694;SDS011;18289;51.330;4.946;2023-03-01T09:48:12;7.20;;;5.72;;
31694;SDS011;18289;51.330;4.946;2023-03-01T09:50:41;12.02;;;6.25;;
31694;SDS011;18289;51.330;4.946;2023-03-01T09:53:26;7.55;;;5.75;;
31694;SDS011;18289;51.330;4.946;2023-03-01T10:01:41;9.93;;;5.70;;
31694;SDS011;18289;51.330;4.946;2023-03-01T10:07:07;7.05;;;6.05;;
31694;SDS011;18289;51.330;4.946;2023-03-01T10:09:38;6.97;;;6.00;;
31694;SDS011;18289;51.330;4.946;2023-03-01T10:12:10;11.20;;;6.47;;
31694;SDS011;18289;51.330;4.946;2023-03-01T10:23:11;7.30;;;6.53;;
31694;SDS011;18289;51.330;4.946;2023-03-01T10:31:14;7.55;;;6.07;;
31694;SDS011;18289;51.330;4.946;2023-03-01T10:33:45;6.55;;;5.85;;
31694;SDS011;18289;51.330;4.946;2023-03-01T10:36:12;6.72;;;5.72;;
31694;SDS011;18289;51.330;4.946;2023-03-01T10:38:52;6.97;;;5.55;;
31694;SDS011;18289;51.330;4.946;2023-03-01T10:41:23;6.45;;;5.55;;
31694;SDS011;18289;51.330;4.946;2023-03-01T10:43:53;8.85;;;6.00;;
31694;SDS011;18289;51.330;4.946;2023-03-01T10:46:22;7.93;;;5.32;;
31694;SDS011;18289;51.330;4.946;2023-03-01T10:51:29;7.15;;;5.68;;
31694;SDS011;18289;51.330;4.946;2023-03-01T10:53:55;6.43;;;5.25;;
31694;SDS011;18289;51.330;4.946;2023-03-01T10:56:21;5.65;;;5.10;;
31694;SDS011;18289;51.330;4.946;2023-03-01T10:59:05;7.32;;;5.50;;
31694;SDS011;18289;51.330;4.946;2023-03-01T11:01:43;5.72;;;5.20;;
31694;SDS011;18289;51.330;4.946;2023-03-01T11:04:11;7.13;;;5.72;;
31694;SDS011;18289;51.330;4.946;2023-03-01T11:06:39;6.40;;;5.80;;
31694;SDS011;18289;51.330;4.946;2023-03-01T11:09:19;6.78;;;5.65;;
31694;SDS011;18289;51.330;4.946;2023-03-01T11:11:57;6.85;;;5.95;;
31694;SDS011;18289;51.330;4.946;2023-03-01T11:14:30;6.03;;;5.43;;
31694;SDS011;18289;51.330;4.946;2023-03-01T11:17:02;5.95;;;5.40;;
31694;SDS011;18289;51.330;4.946;2023-03-01T11:19:29;6.07;;;5.47;;
31694;SDS011;18289;51.330;4.946;2023-03-01T11:22:12;7.20;;;5.68;;
31694;SDS011;18289;51.330;4.946;2023-03-01T11:24:57;6.10;;;5.50;;
31694;SDS011;18289;51.330;4.946;2023-03-01T11:30:13;6.20;;;5.55;;
31694;SDS011;18289;51.330;4.946;2023-03-01T11:32:46;8.20;;;6.00;;
31694;SDS011;18289;51.330;4.946;2023-03-01T11:35:36;6.28;;;5.43;;
31694;SDS011;18289;51.330;4.946;2023-03-01T11:46:37;6.35;;;5.65;;
31694;SDS011;18289;51.330;4.946;2023-03-01T11:54:44;6.00;;;5.28;;
31694;SDS011;18289;51.330;4.946;2023-03-01T12:00:36;8.45;;;5.45;;
31694;SDS011;18289;51.330;4.946;2023-03-01T12:08:43;6.40;;;5.80;;
31694;SDS011;18289;51.330;4.946;2023-03-01T12:11:23;6.05;;;5.20;;
31694;SDS011;18289;51.330;4.946;2023-03-01T12:14:18;6.03;;;5.47;;
31694;SDS011;18289;51.330;4.946;2023-03-01T12:17:14;7.28;;;5.10;;
31694;SDS011;18289;51.330;4.946;2023-03-01T12:38:42;8.85;;;6.40;;
31694;SDS011;18289;51.330;4.946;2023-03-01T12:41:31;9.18;;;6.30;;
31694;SDS011;18289;51.330;4.946;2023-03-01T12:49:48;7.40;;;6.22;;
31694;SDS011;18289;51.330;4.946;2023-03-01T12:52:36;6.68;;;6.00;;
31694;SDS011;18289;51.330;4.946;2023-03-01T12:55:08;6.35;;;5.85;;
31694;SDS011;18289;51.330;4.946;2023-03-01T12:57:59;6.75;;;6.05;;
31694;SDS011;18289;51.330;4.946;2023-03-01T13:00:50;9.30;;;6.13;;
31694;SDS011;18289;51.330;4.946;2023-03-01T13:13:11;8.93;;;5.80;;
31694;SDS011;18289;51.330;4.946;2023-03-01T13:17:59;7.97;;;6.43;;
31694;SDS011;18289;51.330;4.946;2023-03-01T13:26:03;7.45;;;6.65;;
31694;SDS011;18289;51.330;4.946;2023-03-01T13:28:51;7.25;;;6.55;;
31694;SDS011;18289;51.330;4.946;2023-03-01T13:33:51;6.70;;;6.10;;
31694;SDS011;18289;51.330;4.946;2023-03-01T13:39:18;7.40;;;5.95;;
31694;SDS011;18289;51.330;4.946;2023-03-01T13:41:57;9.20;;;6.07;;
31694;SDS011;18289;51.330;4.946;2023-03-01T13:44:35;6.95;;;5.95;;
31694;SDS011;18289;51.330;4.946;2023-03-01T13:49:48;6.17;;;5.60;;
31694;SDS011;18289;51.330;4.946;2023-03-01T13:54:59;5.88;;;4.95;;
31694;SDS011;18289;51.330;4.946;2023-03-01T13:57:33;5.95;;;5.25;;
31694;SDS011;18289;51.330;4.946;2023-03-01T14:00:04;7.43;;;5.37;;
31694;SDS011;18289;51.330;4.946;2023-03-01T14:02:39;6.22;;;5.63;;
31694;SDS011;18289;51.330;4.946;2023-03-01T14:05:09;6.18;;;5.60;;
31694;SDS011;18289;51.330;4.946;2023-03-01T14:07:37;6.88;;;5.55;;
31694;SDS011;18289;51.330;4.946;2023-03-01T14:10:11;6.85;;;5.60;;
31694;SDS011;18289;51.330;4.946;2023-03-01T14:17:55;6.80;;;5.78;;
31694;SDS011;18289;51.330;4.946;2023-03-01T14:20:37;6.00;;;5.40;;
31694;SDS011;18289;51.330;4.946;2023-03-01T14:23:14;5.80;;;5.20;;
31694;SDS011;18289;51.330;4.946;2023-03-01T14:25:58;6.22;;;5.47;;
31694;SDS011;18289;51.330;4.946;2023-03-01T14:28:28;6.50;;;5.90;;
31694;SDS011;18289;51.330;4.946;2023-03-01T14:31:47;8.38;;;5.53;;
31694;SDS011;18289;51.330;4.946;2023-03-01T14:33:56;6.43;;;5.82;;
31694;SDS011;18289;51.330;4.946;2023-03-01T14:36:28;7.70;;;5.73;;
31694;SDS011;18289;51.330;4.946;2023-03-01T14:38:57;6.50;;;5.90;;
31694;SDS011;18289;51.330;4.946;2023-03-01T14:41:29;6.68;;;6.05;;
31694;SDS011;18289;51.330;4.946;2023-03-01T14:44:00;6.17;;;5.57;;
31694;SDS011;18289;51.330;4.946;2023-03-01T14:46:38;8.65;;;5.63;;
31694;SDS011;18289;51.330;4.946;2023-03-01T14:49:21;6.15;;;5.35;;
31694;SDS011;18289;51.330;4.946;2023-03-01T14:54:43;7.00;;;6.10;;
31694;SDS011;18289;51.330;4.946;2023-03-01T14:57:15;7.82;;;5.80;;
31694;SDS011;18289;51.330;4.946;2023-03-01T14:59:48;8.55;;;6.05;;
31694;SDS011;18289;51.330;4.946;2023-03-01T15:02:20;5.97;;;5.43;;
31694;SDS011;18289;51.330;4.946;2023-03-01T15:04:56;6.43;;;5.45;;
31694;SDS011;18289;51.330;4.946;2023-03-01T15:09:56;6.40;;;5.63;;
31694;SDS011;18289;51.330;4.946;2023-03-01T15:14:53;6.80;;;6.07;;
31694;SDS011;18289;51.330;4.946;2023-03-01T15:17:40;8.55;;;6.32;;
31694;SDS011;18289;51.330;4.946;2023-03-01T15:20:15;6.80;;;6.13;;
31694;SDS011;18289;51.330;4.946;2023-03-01T15:22:46;6.18;;;5.57;;
31694;SDS011;18289;51.330;4.946;2023-03-01T15:25:16;6.45;;;5.75;;
31694;SDS011;18289;51.330;4.946;2023-03-01T15:27:48;7.45;;;5.63;;
31694;SDS011;18289;51.330;4.946;2023-03-01T15:30:37;7.20;;;6.15;;
31694;SDS011;18289;51.330;4.946;2023-03-01T15:35:56;7.30;;;6.00;;
31694;SDS011;18289;51.330;4.946;2023-03-01T15:38:34;6.63;;;5.55;;
31694;SDS011;18289;51.330;4.946;2023-03-01T15:43:55;5.70;;;5.20;;
31694;SDS011;18289;51.330;4.946;2023-03-01T15:46:38;6.97;;;5.70;;
31694;SDS011;18289;51.330;4.946;2023-03-01T15:55:15;6.57;;;5.88;;
31694;SDS011;18289;51.330;4.946;2023-03-01T15:57:45;6.72;;;5.80;;
31694;SDS011;18289;51.330;4.946;2023-03-01T16:00:18;6.63;;;6.00;;
31694;SDS011;18289;51.330;4.946;2023-03-01T16:02:52;6.22;;;5.63;;
31694;SDS011;18289;51.330;4.946;2023-03-01T16:07:56;7.28;;;5.95;;
31694;SDS011;18289;51.330;4.946;2023-03-01T16:10:22;8.88;;;7.00;;
31694;SDS011;18289;51.330;4.946;2023-03-01T16:12:51;8.77;;;6.22;;
31694;SDS011;18289;51.330;4.946;2023-03-01T16:15:30;7.95;;;6.65;;
31694;SDS011;18289;51.330;4.946;2023-03-01T16:18:03;7.50;;;6.05;;
31694;SDS011;18289;51.330;4.946;2023-03-01T16:20:30;8.85;;;6.57;;
31694;SDS011;18289;51.330;4.946;2023-03-01T16:23:00;7.88;;;6.43;;
31694;SDS011;18289;51.330;4.946;2023-03-01T16:25:28;7.90;;;6.68;;
31694;SDS011;18289;51.330;4.946;2023-03-01T16:27:54;7.63;;;6.78;;
31694;SDS011;18289;51.330;4.946;2023-03-01T16:30:23;7.63;;;6.82;;
31694;SDS011;18289;51.330;4.946;2023-03-01T16:32:52;9.68;;;7.00;;
31694;SDS011;18289;51.330;4.946;2023-03-01T16:35:20;10.45;;;7.22;;
31694;SDS011;18289;51.330;4.946;2023-03-01T16:37:46;8.82;;;7.15;;
31694;SDS011;18289;51.330;4.946;2023-03-01T16:40:27;9.32;;;7.68;;
31694;SDS011;18289;51.330;4.946;2023-03-01T16:43:09;9.52;;;7.65;;
31694;SDS011;18289;51.330;4.946;2023-03-01T16:45:36;10.80;;;8.23;;
31694;SDS011;18289;51.330;4.946;2023-03-01T16:51:10;9.52;;;7.65;;
31694;SDS011;18289;51.330;4.946;2023-03-01T16:59:36;8.85;;;7.53;;
31694;SDS011;18289;51.330;4.946;2023-03-01T17:05:33;11.65;;;8.43;;
31694;SDS011;18289;51.330;4.946;2023-03-01T17:08:30;9.13;;;7.55;;
31694;SDS011;18289;51.330;4.946;2023-03-01T17:11:01;12.35;;;7.93;;
31694;SDS011;18289;51.330;4.946;2023-03-01T17:13:28;13.05;;;7.90;;
31694;SDS011;18289;51.330;4.946;2023-03-01T17:15:54;10.43;;;8.60;;
31694;SDS011;18289;51.330;4.946;2023-03-01T17:18:20;11.18;;;7.65;;
31694;SDS011;18289;51.330;4.946;2023-03-01T17:20:46;11.10;;;8.15;;
31694;SDS011;18289;51.330;4.946;2023-03-01T17:23:14;9.98;;;7.95;;
31694;SDS011;18289;51.330;4.946;2023-03-01T17:25:43;10.80;;;7.82;;
31694;SDS011;18289;51.330;4.946;2023-03-01T17:28:12;12.43;;;8.05;;
31694;SDS011;18289;51.330;4.946;2023-03-01T17:30:43;10.75;;;8.10;;
31694;SDS011;18289;51.330;4.946;2023-03-01T17:33:12;11.60;;;8.85;;
31694;SDS011;18289;51.330;4.946;2023-03-01T17:35:38;12.43;;;8.55;;
31694;SDS011;18289;51.330;4.946;2023-03-01T17:38:04;15.90;;;9.25;;
31694;SDS011;18289;51.330;4.946;2023-03-01T17:40:34;11.25;;;8.38;;
31694;SDS011;18289;51.330;4.946;2023-03-01T17:43:06;12.55;;;8.20;;
31694;SDS011;18289;51.330;4.946;2023-03-01T17:45:36;14.45;;;9.02;;
31694;SDS011;18289;51.330;4.946;2023-03-01T17:48:08;13.68;;;9.02;;